Time;durP1;ratioP1;P1;durP2;ratioP2;P2;SDS_P1;SDS_P2;PMS_P1;PMS_P2;Temp;Humidity;BMP_temperature;BMP_pressure;BME280_temperature;BME280_humidity;BME280_pressure;Samples;Min_cycle;Max_cycle;Signal;HPM_P1;HPM_P2
2023/10/12 00:05:00;;;;;;;7.28;5.68;;;11.80;99.90;;;12.51;95.40;97991.47;10447782;28;20229;-65
2023/10/12 00:10:20;;;;;;;8.85;6.65;;;11.70;99.90;;;12.55;96.26;97992.50;10444864;28;20225;-65
2023/10/12 00:15:25;;;;;;;8.07;5.85;;;11.80;99.90;;;12.49;96.09;97993.06;10450921;28;20235;-65
2023/10/12 00:20:35;;;;;;;9.65;6.53;;;11.70;99.90;;;12.25;97.66;97981.56;10450557;28;20286;-65
2023/10/12 00:25:47;;;;;;;8.10;6.47;;;11.60;99.90;;;12.31;97.20;97993.00;10446182;28;20600;-66
2023/10/12 00:30:54;;;;;;;7.50;6.20;;;11.50;99.90;;;12.16;98.31;97995.63;10448197;28;20303;-65
2023/10/12 00:36:01;;;;;;;7.70;5.43;;;11.40;99.90;;;12.24;98.86;97985.78;10448335;28;20221;-65
2023/10/12 00:41:14;;;;;;;7.32;6.22;;;11.50;99.90;;;12.22;98.48;97981.38;10447184;28;20311;-65
2023/10/12 00:46:21;;;;;;;7.15;6.13;;;11.50;99.90;;;12.26;98.02;97973.94;10446063;28;20224;-65
2023/10/12 00:51:26;;;;;;;7.70;6.93;;;11.50;99.90;;;12.16;99.97;97967.47;10448332;28;20236;-66
2023/10/12 00:56:30;;;;;;;9.13;6.72;;;11.50;99.90;;;12.06;100.00;97970.31;10442291;28;20606;-65
2023/10/12 01:01:34;;;;;;;7.60;5.93;;;11.40;99.90;;;12.18;99.05;97965.84;10446903;28;20221;-66
2023/10/12 01:06:40;;;;;;;9.02;6.78;;;11.40;99.90;;;12.25;98.55;97961.94;10446470;28;20278;-66
2023/10/12 01:11:51;;;;;;;7.38;6.40;;;11.50;99.90;;;12.26;98.80;97967.94;10447451;28;20583;-65
2023/10/12 01:16:58;;;;;;;8.32;5.32;;;11.50;99.90;;;12.32;97.50;97958.88;10448832;28;20779;-66
2023/10/12 01:22:11;;;;;;;7.47;6.13;;;11.40;99.90;;;12.10;98.08;97949.19;10443677;28;20251;-66
2023/10/12 01:27:15;;;;;;;9.35;6.65;;;11.30;99.90;;;12.03;99.14;97943.66;10448742;28;20229;-66
2023/10/12 01:32:24;;;;;;;8.02;5.80;;;11.20;99.90;;;11.98;98.87;97956.22;10444473;28;20221;-65
2023/10/12 01:37:41;;;;;;;8.43;6.20;;;11.20;99.90;;;12.09;97.89;97949.97;10445370;28;20300;-66
2023/10/12 01:42:50;;;;;;;9.70;6.53;;;11.20;99.90;;;11.80;99.17;97950.09;10447451;28;20316;-65
2023/10/12 01:47:56;;;;;;;8.38;7.25;;;11.10;99.90;;;11.83;99.64;97945.13;10447563;28;20229;-66
2023/10/12 01:53:06;;;;;;;10.23;6.93;;;11.10;99.90;;;11.86;99.22;97947.91;10444228;28;20224;-65
2023/10/12 01:58:12;;;;;;;8.70;6.85;;;11.10;99.90;;;11.83;99.31;97946.00;10449109;28;20220;-65
2023/10/12 02:03:17;;;;;;;7.45;6.53;;;11.00;99.90;;;11.78;99.89;97951.69;10440202;28;20229;-67
2023/10/12 02:08:23;;;;;;;9.40;7.60;;;11.10;99.90;;;11.86;98.78;97950.44;10440168;28;20229;-66
2023/10/12 02:13:28;;;;;;;8.10;6.50;;;11.00;99.90;;;11.70;99.44;97941.94;10445251;28;20237;-65
2023/10/12 02:18:36;;;;;;;8.95;7.05;;;10.90;99.90;;;11.68;100.00;97940.97;10443832;28;20225;-65
2023/10/12 02:23:56;;;;;;;9.77;7.57;;;11.00;99.90;;;11.82;100.00;97943.38;10442860;28;20312;-66
2023/10/12 02:29:11;;;;;;;11.50;7.78;;;11.20;99.90;;;12.16;100.00;97934.13;10443510;28;20221;-66
2023/10/12 02:34:17;;;;;;;9.30;7.85;;;11.40;99.90;;;12.29;100.00;97937.34;10437622;28;20247;-65
2023/10/12 02:39:22;;;;;;;10.70;7.13;;;11.60;99.90;;;12.32;100.00;97928.09;10442664;28;20233;-65
2023/10/12 02:44:26;;;;;;;10.68;7.30;;;11.70;99.90;;;12.49;98.63;97941.78;10442742;28;20602;-66
2023/10/12 02:49:37;;;;;;;11.02;7.60;;;11.80;99.90;;;12.32;100.00;97946.03;10442536;28;20228;-66
2023/10/12 02:54:50;;;;;;;9.25;7.53;;;11.70;99.90;;;12.30;99.27;97928.81;10440841;28;20282;-66
2023/10/12 02:59:58;;;;;;;7.47;6.50;;;11.60;99.90;;;12.30;99.13;97942.50;10442777;28;20228;-66
2023/10/12 03:05:04;;;;;;;8.40;6.05;;;11.50;99.90;;;12.34;99.22;97943.59;10443778;28;20235;-66
2023/10/12 03:10:17;;;;;;;9.38;6.60;;;11.60;99.90;;;12.28;99.90;97940.72;10445793;28;20253;-66
2023/10/12 03:15:21;;;;;;;7.20;6.50;;;11.60;99.90;;;12.36;98.46;97932.59;10448221;28;20265;-66
2023/10/12 03:20:28;;;;;;;10.85;6.38;;;11.60;99.90;;;12.25;98.34;97936.31;10446907;28;20259;-66
2023/10/12 03:25:38;;;;;;;9.52;6.53;;;11.50;99.90;;;12.28;98.00;97943.28;10441058;28;20239;-66
2023/10/12 03:30:53;;;;;;;7.00;6.25;;;11.40;99.90;;;12.15;99.19;97945.16;10442536;28;20229;-65
2023/10/12 03:36:12;;;;;;;7.93;6.50;;;11.40;99.90;;;12.18;99.44;97944.47;10443193;28;20256;-65
2023/10/12 03:47:04;;;;;;;9.27;6.85;;;11.40;99.90;;;12.16;99.71;97940.91;10472039;27;21626;-67
2023/10/12 03:52:13;;;;;;;10.13;6.85;;;11.40;99.90;;;12.04;100.00;97936.03;10454296;28;20274;-67
2023/10/12 03:57:20;;;;;;;10.82;7.13;;;11.30;99.90;;;12.11;100.00;97930.44;10475766;28;20251;-66
2023/10/12 04:02:25;;;;;;;7.10;6.40;;;11.40;99.90;;;12.20;99.61;97929.19;10467712;28;20231;-68
2023/10/12 04:07:39;;;;;;;7.43;6.60;;;11.40;99.90;;;12.18;99.80;97940.22;10485224;28;20255;-67
2023/10/12 04:12:53;;;;;;;8.82;7.40;;;11.40;99.90;;;12.10;100.00;97931.28;10471353;28;20704;-67
2023/10/12 04:18:06;;;;;;;11.00;6.78;;;11.40;99.90;;;12.12;100.00;97931.31;10473664;28;20233;-66
2023/10/12 04:23:43;;;;;;;8.00;6.65;;;11.40;99.90;;;12.07;100.00;97928.50;10463570;28;20621;-64
2023/10/12 04:28:39;;;;;;;7.90;7.10;;;11.30;99.90;;;12.04;100.00;97940.28;10467931;28;20591;-67
2023/10/12 04:33:50;;;;;;;8.27;6.93;;;11.30;99.90;;;12.36;100.00;97930.03;10461990;28;20237;-67
2023/10/12 04:39:11;;;;;;;8.60;7.78;;;11.50;99.90;;;12.20;100.00;97944.56;10441077;28;20217;-67
2023/10/12 04:49:57;;;;;;;10.88;8.10;;;11.40;99.90;;;12.11;100.00;97957.75;10447719;28;20229;-67
2023/10/12 04:55:20;;;;;;;11.07;7.85;;;11.40;99.90;;;12.19;100.00;97961.63;10450231;28;20236;-68
2023/10/12 05:00:26;;;;;;;7.90;7.10;;;11.50;99.90;;;12.22;99.80;97963.44;10435078;28;20221;-68
2023/10/12 05:10:56;;;;;;;7.82;7.03;;;11.40;99.90;;;12.13;100.00;97951.91;10430013;28;20712;-67
2023/10/12 05:16:05;;;;;;;9.13;8.23;;;11.40;99.90;;;12.03;100.00;97948.78;10425630;28;20716;-67
2023/10/12 05:21:10;;;;;;;10.30;7.05;;;11.30;99.90;;;12.12;100.00;97939.88;10410404;28;20742;-64
2023/10/12 05:26:14;;;;;;;10.18;6.97;;;11.30;99.90;;;12.02;100.00;97953.03;10425397;28;20716;-67
2023/10/12 05:31:20;;;;;;;9.95;7.57;;;11.20;99.90;;;11.89;100.00;97955.72;10411903;28;20305;-65
2023/10/12 05:36:28;;;;;;;9.18;7.15;;;11.10;99.90;;;11.85;100.00;97954.69;10404364;28;20789;-67
2023/10/12 05:41:34;;;;;;;8.25;6.32;;;11.10;99.90;;;11.89;100.00;97960.84;10414895;28;20229;-66
2023/10/12 05:46:40;;;;;;;7.53;6.63;;;11.10;99.90;;;11.90;100.00;97965.16;10410272;28;20233;-67
2023/10/12 05:51:45;;;;;;;8.68;7.18;;;11.20;99.90;;;11.99;100.00;97975.03;10406036;28;20236;-65
2023/10/12 05:56:50;;;;;;;9.20;7.43;;;11.20;99.90;;;11.92;100.00;97981.50;10405066;28;20947;-64
2023/10/12 06:01:53;;;;;;;7.30;6.32;;;11.20;99.90;;;11.99;100.00;97983.63;10425643;28;20229;-65
2023/10/12 06:06:57;;;;;;;10.15;7.68;;;11.20;99.90;;;11.95;100.00;97981.69;10411349;28;20248;-65
2023/10/12 06:12:05;;;;;;;9.80;7.47;;;11.20;99.90;;;11.99;100.00;97990.41;10408746;28;20306;-65
2023/10/12 06:17:27;;;;;;;9.43;6.82;;;11.30;99.90;;;12.13;100.00;97992.91;10420267;28;20221;-65
2023/10/12 06:22:33;;;;;;;9.30;7.15;;;11.40;99.90;;;12.36;100.00;98003.47;10412465;28;20682;-65
2023/10/12 06:27:37;;;;;;;8.23;7.00;;;11.60;99.90;;;12.45;100.00;98000.50;10416234;28;20737;-66
2023/10/12 06:32:41;;;;;;;7.95;7.15;;;11.60;99.90;;;12.53;99.96;98000.13;10403225;28;20320;-65
2023/10/12 06:38:00;;;;;;;7.60;6.53;;;11.70;99.90;;;12.50;100.00;98004.19;10413640;28;20710;-65
2023/10/12 06:48:43;;;;;;;8.00;7.20;;;11.80;99.90;;;12.73;99.92;98002.81;10372213;28;20217;-65
2023/10/12 06:53:54;;;;;;;8.30;6.68;;;11.90;99.90;;;12.82;97.55;97998.16;10404442;28;20324;-66
2023/10/12 06:59:21;;;;;;;8.35;7.28;;;12.00;99.90;;;12.81;99.20;98002.38;10401128;28;20559;-66
2023/10/12 07:04:27;;;;;;;7.85;6.60;;;12.10;99.90;;;12.91;99.98;98002.88;10406412;28;20646;-67
2023/10/12 07:09:40;;;;;;;8.32;6.75;;;12.20;99.90;;;13.06;99.93;98012.19;10410342;28;20224;-67
2023/10/12 07:14:46;;;;;;;7.88;7.07;;;12.30;99.90;;;13.30;98.70;98024.50;10420462;28;20245;-67
2023/10/12 07:19:54;;;;;;;8.00;7.20;;;12.50;99.90;;;13.63;97.90;98029.53;10423750;28;20224;-67
2023/10/12 07:24:58;;;;;;;7.72;6.70;;;12.80;99.90;;;14.15;97.50;98031.97;10419648;28;20256;-66
2023/10/12 07:30:09;;;;;;;8.20;7.40;;;13.50;99.90;;;14.49;96.75;98042.06;10418314;28;20728;-66
2023/10/12 07:35:17;;;;;;;9.15;6.82;;;13.80;99.90;;;14.59;96.15;98052.00;10415261;28;21091;-65
2023/10/12 07:40:24;;;;;;;8.00;7.20;;;13.90;99.90;;;14.77;95.82;98045.91;10418200;28;20311;-66
2023/10/12 07:45:28;;;;;;;9.13;7.28;;;14.00;99.90;;;15.12;94.23;98039.69;10421205;28;20695;-66
2023/10/12 07:50:37;;;;;;;7.20;6.55;;;14.30;99.90;;;15.45;93.98;98039.31;10418666;28;20229;-65
2023/10/12 07:55:42;;;;;;;8.70;6.00;;;14.70;99.90;;;15.72;93.71;98025.00;10413609;28;20217;-67
2023/10/12 08:00:51;;;;;;;7.10;6.43;;;15.10;99.90;;;15.96;94.38;98025.06;10411837;28;20811;-67
2023/10/12 08:06:06;;;;;;;10.27;7.00;;;15.30;99.90;;;16.43;93.26;98027.69;10415488;28;20610;-67
2023/10/12 08:11:18;;;;;;;7.63;6.28;;;15.90;99.90;;;17.06;90.18;98020.50;10416525;28;20651;-67
2023/10/12 08:16:27;;;;;;;7.38;5.82;;;16.40;99.90;;;17.54;89.80;98020.38;10418175;28;20704;-68
2023/10/12 08:21:32;;;;;;;7.90;7.10;;;16.90;99.90;;;17.96;89.18;98029.44;10420532;28;20223;-68
2023/10/12 08:26:57;;;;;;;6.85;6.25;;;17.40;99.90;;;18.37;85.60;98022.03;10413105;28;20927;-68
2023/10/12 08:32:11;;;;;;;10.68;6.93;;;17.70;99.90;;;18.71;82.60;98026.44;10418802;28;20237;-66
2023/10/12 08:37:20;;;;;;;7.57;6.80;;;18.00;99.90;;;18.70;82.42;98029.88;10421392;28;20233;-65
2023/10/12 08:42:39;;;;;;;9.90;6.47;;;17.90;99.90;;;18.86;80.73;98007.91;10415092;28;20327;-68
2023/10/12 08:47:49;;;;;;;10.40;7.50;;;18.00;99.90;;;18.81;80.97;98007.78;10414647;28;20252;-65
2023/10/12 08:52:58;;;;;;;7.55;6.70;;;18.00;99.90;;;18.95;84.45;98002.09;10412645;28;20259;-66
2023/10/12 08:58:31;;;;;;;8.93;6.43;;;18.20;99.90;;;19.35;81.91;98012.63;10411410;28;20228;-65
2023/10/12 09:03:38;;;;;;;8.88;7.30;;;18.60;99.90;;;19.58;79.58;98015.78;10413584;28;20688;-65
2023/10/12 09:08:46;;;;;;;9.15;7.32;;;18.80;99.90;;;19.84;79.90;98012.09;10416843;28;20249;-66
2023/10/12 09:13:51;;;;;;;6.80;6.18;;;19.10;99.90;;;20.27;80.31;98013.03;10427461;28;20228;-67
2023/10/12 09:18:59;;;;;;;8.05;6.35;;;19.50;99.90;;;20.46;79.00;98025.56;10433799;28;20436;-66
2023/10/12 09:24:21;;;;;;;6.72;6.00;;;19.70;99.90;;;20.67;72.57;98026.03;10402626;28;20225;-70
2023/10/12 09:29:27;;;;;;;7.13;6.10;;;20.00;99.90;;;20.91;68.33;98029.94;10408360;28;20233;-67
2023/10/12 09:40:29;;;;;;;11.20;6.45;;;20.30;99.90;;;21.34;63.77;98025.50;10388267;28;20839;-66
2023/10/12 09:45:41;;;;;;;12.32;6.50;;;20.60;99.90;;;21.52;60.74;98025.00;10371558;28;20225;-67
2023/10/12 09:50:49;;;;;;;8.15;6.43;;;20.80;99.90;;;21.75;57.60;98020.16;10341433;28;20261;-64
2023/10/12 09:56:10;;;;;;;9.45;6.47;;;20.90;99.90;;;22.05;54.82;98017.97;10371936;28;20271;-64
2023/10/12 10:01:20;;;;;;;8.30;5.97;;;21.20;99.90;;;22.36;53.56;98023.66;10375074;28;20225;-67
2023/10/12 10:06:37;;;;;;;9.02;5.72;;;21.70;99.20;;;22.99;51.20;98005.28;10379426;28;20594;-67
2023/10/12 10:11:42;;;;;;;7.50;6.05;;;22.30;97.20;;;23.31;49.42;98009.06;10381242;28;20775;-64
2023/10/12 10:16:47;;;;;;;8.40;5.65;;;22.60;96.00;;;23.64;48.75;98004.13;10369665;28;20233;-65
2023/10/12 10:22:03;;;;;;;8.82;6.25;;;22.90;95.20;;;23.74;48.02;98003.34;10369182;28;20732;-65
2023/10/12 10:27:16;;;;;;;7.82;5.82;;;23.00;94.60;;;23.83;47.90;98004.28;10385309;28;20234;-66
2023/10/12 10:32:29;;;;;;;9.05;6.10;;;23.20;93.90;;;24.05;47.86;98013.13;10386807;28;20994;-65
2023/10/12 10:37:57;;;;;;;8.80;6.22;;;23.40;93.70;;;24.25;46.53;98008.03;10367564;28;20244;-65
2023/10/12 10:43:07;;;;;;;6.57;5.85;;;23.60;92.90;;;24.18;46.45;98016.72;10365658;28;20788;-66
2023/10/12 10:48:13;;;;;;;7.10;6.18;;;23.50;93.10;;;24.08;47.11;98008.81;10363553;28;20230;-66
2023/10/12 10:53:37;;;;;;;8.07;6.10;;;23.30;93.20;;;24.35;46.68;98002.84;10347052;28;20646;-66
2023/10/12 10:58:45;;;;;;;6.70;5.60;;;23.80;92.60;;;24.25;46.51;98009.75;10349598;28;20222;-65
2023/10/12 11:03:49;;;;;;;8.75;6.00;;;23.50;92.70;;;24.21;46.26;98006.28;10344720;28;20219;-66
2023/10/12 11:09:04;;;;;;;8.18;5.72;;;23.50;92.50;;;24.11;45.97;97996.63;10348469;28;20253;-66
2023/10/12 11:14:11;;;;;;;7.55;6.35;;;23.50;92.30;;;24.21;46.00;97995.81;10345665;28;20811;-66
2023/10/12 11:19:19;;;;;;;7.97;6.25;;;23.50;92.40;;;24.19;46.25;97997.53;10328952;28;20233;-66
2023/10/12 11:24:24;;;;;;;8.75;6.05;;;23.40;92.40;;;24.32;46.24;97992.38;10344974;28;20241;-66
2023/10/12 11:29:28;;;;;;;7.63;6.10;;;23.50;92.30;;;24.22;46.49;97997.56;10336474;28;20567;-65
2023/10/12 11:34:33;;;;;;;7.63;5.53;;;23.30;92.50;;;24.30;46.39;97988.91;10338956;28;20240;-67
2023/10/12 11:39:42;;;;;;;9.77;5.80;;;23.40;92.60;;;24.27;47.03;97979.31;10340115;28;20341;-67
2023/10/12 11:44:51;;;;;;;6.55;5.65;;;23.50;92.60;;;24.33;45.85;97978.47;10339855;28;20232;-64
2023/10/12 11:49:56;;;;;;;8.65;6.15;;;23.40;92.40;;;24.16;47.08;97974.03;10339203;28;20280;-67
2023/10/12 11:55:06;;;;;;;8.00;5.82;;;23.30;92.90;;;24.13;47.28;97980.97;10339969;28;20718;-67
2023/10/12 12:00:21;;;;;;;7.53;5.97;;;23.10;93.30;;;24.18;47.71;97985.38;10335575;28;20230;-67
2023/10/12 12:05:26;;;;;;;7.65;6.05;;;23.20;93.40;;;24.33;47.26;97988.91;10339707;28;20603;-67
2023/10/12 12:10:44;;;;;;;7.18;5.88;;;23.30;93.50;;;24.37;47.02;97980.22;10334295;28;20368;-68
2023/10/12 12:15:55;;;;;;;8.57;6.10;;;23.40;93.10;;;24.33;47.37;97983.69;10336898;28;20239;-66
2023/10/12 12:21:02;;;;;;;8.82;5.68;;;23.40;93.40;;;24.50;47.16;97988.13;10347709;28;20222;-65
2023/10/12 12:26:09;;;;;;;8.60;5.65;;;23.60;93.20;;;24.49;47.18;97995.97;10345315;28;20860;-65
2023/10/12 12:31:15;;;;;;;6.95;5.90;;;23.60;92.90;;;24.24;47.66;97995.84;10348002;28;21149;-68
2023/10/12 12:36:21;;;;;;;8.32;5.93;;;23.50;93.20;;;24.12;48.51;97993.13;10336251;28;20229;-65
2023/10/12 12:41:25;;;;;;;6.50;5.72;;;23.20;93.90;;;23.92;48.70;97992.16;10343754;28;20565;-64
2023/10/12 12:46:30;;;;;;;7.72;6.28;;;22.90;93.70;;;23.57;49.06;97993.63;10344111;28;20225;-66
2023/10/12 12:51:34;;;;;;;7.10;5.57;;;22.70;94.10;;;23.50;49.29;97993.59;10335035;28;20241;-65
2023/10/12 12:56:37;;;;;;;8.95;5.85;;;22.50;94.50;;;23.26;50.86;98002.94;10333835;28;20225;-64
2023/10/12 13:01:45;;;;;;;8.48;5.93;;;22.30;95.50;;;23.15;51.38;97996.78;10337666;28;20233;-66
2023/10/12 13:06:51;;;;;;;7.13;5.80;;;22.10;95.90;;;23.08;51.63;97985.38;10340252;28;20305;-65
2023/10/12 13:12:08;;;;;;;8.60;6.47;;;22.10;96.00;;;23.06;52.03;97981.00;10347153;28;20234;-67
2023/10/12 13:17:13;;;;;;;7.60;5.88;;;22.10;96.30;;;22.99;51.96;97985.31;10351070;28;20226;-66
2023/10/12 13:22:17;;;;;;;7.45;5.85;;;22.00;96.60;;;22.93;52.84;97985.22;10361789;28;20749;-65
2023/10/12 13:27:22;;;;;;;6.95;6.15;;;21.90;97.10;;;22.76;54.20;97958.97;10360892;28;20253;-65
2023/10/12 13:32:27;;;;;;;9.38;6.47;;;21.80;98.20;;;22.64;54.77;97971.88;10359210;28;20230;-65
2023/10/12 13:37:31;;;;;;;9.57;6.30;;;21.60;98.30;;;22.51;56.43;97962.16;10349801;28;20222;-66
2023/10/12 13:42:35;;;;;;;6.97;5.70;;;21.50;99.60;;;22.44;57.19;97938.66;10346905;28;20223;-65
2023/10/12 13:47:40;;;;;;;9.02;6.28;;;21.50;99.90;;;22.43;57.36;97923.00;10341294;28;20717;-66
2023/10/12 13:52:43;;;;;;;11.18;6.28;;;21.50;99.90;;;22.56;57.12;97935.31;10357603;28;20258;-66
2023/10/12 13:57:55;;;;;;;8.07;6.53;;;21.60;99.90;;;22.71;55.82;97926.78;10360853;28;20226;-65
2023/10/12 14:03:10;;;;;;;9.75;6.18;;;21.80;99.10;;;22.81;55.28;97926.00;10358311;28;20248;-66
2023/10/12 14:08:14;;;;;;;9.40;6.32;;;21.90;98.70;;;22.88;54.67;97914.78;10358820;28;20617;-64
2023/10/12 14:13:17;;;;;;;6.40;5.80;;;21.90;97.90;;;22.90;53.90;97912.19;10363078;28;20237;-66
2023/10/12 14:18:21;;;;;;;6.78;6.07;;;21.90;97.90;;;22.88;55.17;97903.47;10360959;28;20277;-66
2023/10/12 14:23:26;;;;;;;10.38;6.90;;;21.90;99.60;;;22.83;54.86;97906.03;10357275;28;20230;-65
2023/10/12 14:28:35;;;;;;;7.10;6.28;;;21.80;98.60;;;22.77;54.37;97892.94;10365013;28;20226;-66
2023/10/12 14:33:40;;;;;;;8.40;6.40;;;21.80;98.10;;;22.74;54.97;97885.09;10351237;28;20637;-65
2023/10/12 14:38:44;;;;;;;9.20;6.13;;;21.80;98.70;;;22.65;56.87;97887.63;10350676;28;20231;-67
2023/10/12 14:43:48;;;;;;;6.82;6.10;;;21.70;99.90;;;22.56;58.09;97879.72;10352229;28;20241;-67
2023/10/12 14:48:53;;;;;;;8.52;6.57;;;21.60;99.90;;;22.51;58.67;97881.41;10351041;28;20229;-66
2023/10/12 14:53:57;;;;;;;6.90;6.30;;;21.50;99.90;;;22.50;58.47;97877.94;10351815;28;20230;-66
2023/10/12 14:59:00;;;;;;;7.28;6.57;;;21.50;99.90;;;22.43;60.04;97871.78;10354473;28;20229;-65
2023/10/12 15:04:07;;;;;;;8.75;7.03;;;21.40;99.90;;;22.35;61.28;97857.81;10352317;28;20230;-68
2023/10/12 15:09:12;;;;;;;11.05;7.30;;;21.40;99.90;;;22.32;61.93;97851.69;10353715;28;20222;-64
2023/10/12 15:14:16;;;;;;;9.23;7.10;;;21.40;99.90;;;22.29;63.23;97849.03;10349805;28;20284;-66
2023/10/12 15:19:20;;;;;;;8.95;7.43;;;21.30;99.90;;;22.16;63.92;97842.81;10355629;28;20242;-64
2023/10/12 15:24:26;;;;;;;9.07;7.07;;;21.20;99.90;;;22.06;65.37;97852.22;10339322;28;20239;-65
2023/10/12 15:29:29;;;;;;;7.90;6.85;;;21.10;99.90;;;21.98;66.87;97851.28;10341981;28;20233;-67
2023/10/12 15:34:34;;;;;;;10.32;7.32;;;21.00;99.90;;;21.87;67.94;97845.94;10346500;28;20328;-65
2023/10/12 15:39:37;;;;;;;9.60;7.45;;;20.90;99.90;;;21.80;67.87;97844.13;10360077;28;20353;-66
2023/10/12 15:44:41;;;;;;;8.90;8.00;;;20.80;99.90;;;21.66;68.51;97846.56;10357430;28;20614;-65
2023/10/12 15:49:45;;;;;;;11.32;7.68;;;20.70;99.90;;;21.58;69.82;97854.25;10355672;28;20231;-64
2023/10/12 15:54:48;;;;;;;9.52;7.38;;;20.50;99.90;;;21.47;71.33;97865.38;10332381;28;20245;-65
2023/10/12 15:59:53;;;;;;;8.27;7.28;;;20.40;99.90;;;21.30;72.86;97870.28;10340202;28;20226;-64
2023/10/12 16:04:58;;;;;;;11.32;7.75;;;20.30;99.90;;;21.17;74.43;97870.94;10332202;28;20229;-66
2023/10/12 16:10:05;;;;;;;8.82;7.90;;;20.20;99.90;;;21.01;76.19;97868.13;10332398;28;20231;-65
2023/10/12 16:15:11;;;;;;;9.77;8.15;;;20.00;99.90;;;20.77;78.48;97872.91;10337706;28;20711;-67
2023/10/12 16:20:17;;;;;;;10.43;8.55;;;19.80;99.90;;;20.68;78.27;97871.03;10342927;28;20227;-65
2023/10/12 16:25:20;;;;;;;11.70;8.23;;;19.70;99.90;;;20.52;79.91;97872.47;10340735;28;20226;-67
2023/10/12 16:30:23;;;;;;;10.02;8.75;;;19.50;99.90;;;20.39;80.52;97878.28;10340486;28;20227;-65
2023/10/12 16:35:28;;;;;;;9.98;8.82;;;19.40;99.90;;;20.24;81.16;97890.13;10333789;28;20256;-64
2023/10/12 16:40:31;;;;;;;10.80;8.63;;;19.20;99.90;;;20.17;81.67;97880.47;10335242;28;20234;-65
2023/10/12 16:45:36;;;;;;;11.07;9.52;;;19.20;99.90;;;20.01;82.62;97881.88;10333674;28;20321;-64
2023/10/12 16:50:41;;;;;;;12.82;10.52;;;19.10;99.90;;;20.02;82.92;97885.34;10333993;28;20233;-66
2023/10/12 16:55:45;;;;;;;14.68;11.88;;;19.00;99.90;;;19.86;84.75;97891.06;10333625;28;20229;-66
2023/10/12 17:00:55;;;;;;;12.70;10.85;;;18.90;99.90;;;19.73;84.99;97900.31;10346173;28;20233;-66
2023/10/12 17:06:00;;;;;;;11.73;10.60;;;18.80;99.90;;;19.61;85.57;97890.50;10334760;28;20227;-66
2023/10/12 17:11:05;;;;;;;10.15;9.02;;;18.70;99.90;;;19.53;84.69;97897.25;10329217;28;20230;-66
2023/10/12 17:16:08;;;;;;;8.57;7.70;;;18.60;99.90;;;19.46;83.74;97906.59;10330144;28;20222;-67
2023/10/12 17:21:13;;;;;;;9.93;8.13;;;18.50;99.90;;;19.40;83.49;97906.47;10327151;28;20226;-66
2023/10/12 17:26:16;;;;;;;9.27;8.38;;;18.40;99.90;;;19.29;84.03;97914.00;10331263;28;20223;-67
2023/10/12 17:31:26;;;;;;;10.15;8.38;;;18.40;99.90;;;19.22;84.04;97917.25;10342000;28;20235;-66
2023/10/12 17:36:32;;;;;;;8.98;7.43;;;18.30;99.90;;;19.25;83.76;97909.56;10337793;28;20646;-67
2023/10/12 17:41:35;;;;;;;9.75;8.27;;;18.30;99.90;;;19.19;83.31;97906.81;10347435;28;20242;-65
2023/10/12 17:46:38;;;;;;;8.98;8.05;;;18.30;99.90;;;19.22;83.08;97924.16;10330507;28;20222;-66
2023/10/12 17:51:44;;;;;;;9.82;8.82;;;18.30;99.90;;;19.14;83.45;97918.78;10340776;28;20284;-66
2023/10/12 17:56:48;;;;;;;11.65;7.80;;;18.30;99.90;;;19.09;83.90;97923.88;10341243;28;20226;-66
2023/10/12 18:01:54;;;;;;;10.20;8.10;;;18.20;99.90;;;19.01;84.33;97932.31;10344058;28;20226;-67
2023/10/12 18:07:00;;;;;;;15.85;8.60;;;18.10;99.90;;;18.95;84.30;97937.34;10360317;28;20234;-66
2023/10/12 18:12:06;;;;;;;11.45;8.25;;;18.00;99.90;;;18.92;84.32;97945.03;10364302;28;20238;-66
2023/10/12 18:17:11;;;;;;;9.30;7.80;;;18.00;99.90;;;18.86;84.77;97949.22;10356036;28;20705;-66
2023/10/12 18:22:16;;;;;;;10.25;7.45;;;18.00;99.90;;;18.87;85.01;97950.94;10358583;28;20234;-66
2023/10/12 18:27:20;;;;;;;8.88;7.82;;;18.00;99.90;;;18.85;85.49;97956.94;10362588;28;20230;-66
2023/10/12 18:32:23;;;;;;;8.60;7.70;;;17.90;99.90;;;18.74;84.68;97961.81;10358636;28;20234;-66
2023/10/12 18:37:27;;;;;;;8.57;7.63;;;17.90;99.90;;;18.74;84.51;97961.81;10359913;28;20226;-66
2023/10/12 18:42:32;;;;;;;8.85;7.97;;;17.90;99.90;;;18.79;83.90;97972.31;10360148;28;20245;-65
2023/10/12 18:47:35;;;;;;;8.85;8.00;;;17.90;99.90;;;18.74;83.76;97966.13;10356549;28;20250;-66
2023/10/12 18:52:40;;;;;;;9.32;8.43;;;17.80;99.90;;;18.68;84.21;97979.75;10348499;28;20812;-66
2023/10/12 18:57:44;;;;;;;9.80;8.80;;;17.80;99.90;;;18.66;84.64;97978.84;10362237;28;20223;-66
2023/10/12 19:02:49;;;;;;;10.52;9.30;;;17.80;99.90;;;18.59;84.98;97976.91;10355399;28;20229;-66
2023/10/12 19:07:55;;;;;;;10.63;9.55;;;17.70;99.90;;;18.52;85.30;97985.38;10359958;28;20280;-66
2023/10/12 19:12:58;;;;;;;10.20;9.25;;;17.60;99.90;;;18.41;85.97;97991.09;10361104;28;20285;-66
2023/10/12 19:18:20;;;;;;;11.73;9.05;;;17.50;99.90;;;18.36;86.54;97982.34;10348576;28;20227;-66
2023/10/12 19:23:25;;;;;;;10.45;8.80;;;17.50;99.90;;;18.32;86.82;97990.84;10353267;28;20235;-66
2023/10/12 19:28:28;;;;;;;10.60;9.52;;;17.40;99.90;;;18.23;87.86;97988.00;10342648;28;20305;-67
2023/10/12 19:33:32;;;;;;;11.02;9.90;;;17.30;99.90;;;18.07;88.52;97985.81;10337653;28;20726;-67
2023/10/12 19:38:38;;;;;;;10.63;8.93;;;17.20;99.90;;;18.03;88.62;97987.44;10356645;28;21093;-67
2023/10/12 19:43:41;;;;;;;11.90;10.52;;;17.10;99.90;;;18.03;89.03;97990.00;10360712;28;20356;-66
2023/10/12 19:48:45;;;;;;;11.05;9.70;;;17.10;99.90;;;17.95;90.09;97986.31;10348865;28;20226;-66
2023/10/12 19:53:50;;;;;;;13.27;9.38;;;17.10;99.90;;;17.95;89.55;97986.31;10350214;28;20226;-67
2023/10/12 19:58:57;;;;;;;8.68;7.80;;;17.10;99.90;;;17.92;89.46;97987.09;10351410;28;20258;-67
2023/10/12 20:04:00;;;;;;;8.60;7.70;;;17.00;99.90;;;17.84;89.42;97988.56;10338748;28;20238;-65
2023/10/12 20:09:12;;;;;;;9.10;8.20;;;16.90;99.90;;;17.74;89.73;97983.91;10348264;28;20321;-67
2023/10/12 20:14:15;;;;;;;10.80;9.23;;;16.80;99.90;;;17.69;90.00;97993.25;10345066;28;20244;-68
2023/10/12 20:19:24;;;;;;;11.32;9.13;;;16.80;99.90;;;17.64;90.19;97987.06;10336535;28;20269;-67
2023/10/12 20:24:32;;;;;;;10.18;8.57;;;16.70;99.90;;;17.62;89.78;97996.44;10332640;28;20588;-68
2023/10/12 20:29:39;;;;;;;9.73;8.77;;;16.70;99.90;;;17.56;89.03;97995.41;10332706;28;20298;-67
2023/10/12 20:34:42;;;;;;;9.70;8.70;;;16.70;99.90;;;17.51;88.89;97997.00;10334056;28;20226;-68
2023/10/12 20:39:48;;;;;;;9.57;8.68;;;16.60;99.90;;;17.39;88.48;98000.88;10330248;28;20238;-66
2023/10/12 20:44:51;;;;;;;10.55;8.10;;;16.50;99.90;;;17.31;88.45;98001.53;10330959;28;20218;-67
2023/10/12 20:49:56;;;;;;;8.55;7.43;;;16.40;99.90;;;17.22;89.38;97992.59;10331130;28;20227;-66
2023/10/12 20:55:00;;;;;;;9.40;7.13;;;16.30;99.90;;;17.16;88.32;97995.84;10335072;28;20584;-67
2023/10/12 21:00:05;;;;;;;7.60;6.95;;;16.30;99.90;;;17.10;88.60;98011.13;10332500;28;20612;-67
2023/10/12 21:05:09;;;;;;;9.30;8.10;;;16.20;99.90;;;17.01;89.07;98009.13;10333193;28;20599;-68
2023/10/12 21:10:13;;;;;;;8.73;7.93;;;16.20;99.90;;;16.95;90.05;98013.22;10332482;28;20774;-67
2023/10/12 21:15:20;;;;;;;8.85;7.97;;;16.20;99.90;;;16.96;90.04;98013.25;10335459;28;20229;-67
2023/10/12 21:20:37;;;;;;;8.60;7.68;;;16.20;99.90;;;16.95;89.78;98018.38;10335280;28;20268;-66
2023/10/12 21:25:45;;;;;;;7.45;6.75;;;16.10;99.90;;;16.90;89.33;98007.88;10334381;28;20222;-66
2023/10/12 21:30:50;;;;;;;8.48;7.55;;;16.10;99.90;;;16.94;88.92;98007.16;10334392;28;20784;-66
2023/10/12 21:35:56;;;;;;;7.45;6.75;;;16.10;99.90;;;16.93;88.44;97994.19;10334594;28;20227;-68
2023/10/12 21:41:06;;;;;;;7.47;6.75;;;16.10;99.90;;;16.87;88.07;98005.19;10331991;28;20681;-67
2023/10/12 21:46:12;;;;;;;8.15;6.60;;;16.00;99.90;;;16.85;87.22;97999.09;10330589;28;20512;-68